Time;durP1;ratioP1;P1;durP2;ratioP2;P2;SDS_P1;SDS_P2;PMS_P1;PMS_P2;Temp;Humidity;BMP_temperature;BMP_pressure;BME280_temperature;BME280_humidity;BME280_pressure;Samples;Min_cycle;Max_cycle;Signal;HPM_P1;HPM_P2
2023/07/16 00:00:04;;;;;;;17.00;5.30;;;;;;;;;;5111523;28;20119;-65
2023/07/16 00:02:31;;;;;;;18.15;5.15;;;;;;;;;;5107241;28;20044;-65
2023/07/16 00:04:57;;;;;;;20.17;5.47;;;;;;;;;;5104181;27;20035;-66
2023/07/16 00:07:23;;;;;;;16.77;5.97;;;;;;;;;;5114314;27;20046;-65
2023/07/16 00:09:49;;;;;;;16.38;5.05;;;;;;;;;;5101784;28;20050;-65
2023/07/16 00:12:16;;;;;;;20.65;5.30;;;;;;;;;;5104848;28;20058;-65
2023/07/16 00:14:42;;;;;;;16.95;4.93;;;;;;;;;;5104730;27;20789;-65
2023/07/16 00:17:08;;;;;;;16.80;5.03;;;;;;;;;;5102188;27;20051;-65
2023/07/16 00:19:34;;;;;;;16.10;5.43;;;;;;;;;;5104853;28;20044;-65
2023/07/16 00:22:00;;;;;;;16.88;5.28;;;;;;;;;;5138182;27;20047;-65
2023/07/16 00:24:26;;;;;;;17.30;5.53;;;;;;;;;;5104496;27;20036;-65
2023/07/16 00:26:53;;;;;;;13.50;4.47;;;;;;;;;;5105002;28;20047;-65
2023/07/16 00:29:19;;;;;;;16.75;5.68;;;;;;;;;;5109146;27;20035;-65
2023/07/16 00:31:45;;;;;;;16.50;4.15;;;;;;;;;;5105613;28;20039;-65
2023/07/16 00:34:12;;;;;;;15.05;4.68;;;;;;;;;;5104035;28;20051;-65
2023/07/16 00:36:39;;;;;;;23.27;3.97;;;;;;;;;;5104186;28;20124;-65
2023/07/16 00:39:05;;;;;;;14.27;3.88;;;;;;;;;;5103926;28;20043;-65
2023/07/16 00:41:31;;;;;;;13.20;3.60;;;;;;;;;;5101891;28;20039;-65
2023/07/16 00:43:58;;;;;;;10.75;3.42;;;;;;;;;;5103789;27;20100;-65
2023/07/16 00:46:24;;;;;;;13.05;3.88;;;;;;;;;;5104535;27;20833;-65
2023/07/16 00:48:50;;;;;;;11.07;3.33;;;;;;;;;;5103507;28;20661;-65
2023/07/16 00:51:17;;;;;;;22.58;4.10;;;;;;;;;;5103560;28;20044;-65
2023/07/16 00:53:43;;;;;;;20.75;4.47;;;;;;;;;;5102530;28;20052;-65
2023/07/16 00:56:10;;;;;;;11.98;3.65;;;;;;;;;;5105156;28;20059;-65
2023/07/16 00:58:36;;;;;;;14.07;3.80;;;;;;;;;;5100408;27;20035;-65
2023/07/16 01:01:03;;;;;;;17.40;4.10;;;;;;;;;;5102449;28;20360;-65
2023/07/16 01:03:29;;;;;;;9.55;3.10;;;;;;;;;;5100755;27;20456;-65
2023/07/16 01:05:55;;;;;;;10.02;2.95;;;;;;;;;;5112805;27;20479;-65
2023/07/16 01:08:36;;;;;;;16.10;4.00;;;;;;;;;;5111184;28;20127;-65
2023/07/16 01:11:02;;;;;;;15.07;4.03;;;;;;;;;;5112494;27;20055;-65
2023/07/16 01:13:29;;;;;;;11.63;3.17;;;;;;;;;;5109556;28;20081;-65
2023/07/16 01:15:55;;;;;;;14.10;4.15;;;;;;;;;;5109830;28;20071;-65
2023/07/16 01:18:21;;;;;;;15.50;4.53;;;;;;;;;;5109621;28;20101;-65
2023/07/16 01:20:48;;;;;;;27.42;3.90;;;;;;;;;;5107417;28;20096;-65
2023/07/16 01:23:24;;;;;;;13.82;4.00;;;;;;;;;;5106687;28;20106;-65
2023/07/16 01:26:03;;;;;;;14.70;3.63;;;;;;;;;;5111851;28;20410;-65
2023/07/16 01:28:32;;;;;;;16.30;4.53;;;;;;;;;;5109269;27;20048;-65
2023/07/16 01:30:59;;;;;;;17.15;4.07;;;;;;;;;;5110111;28;20059;-65
2023/07/16 01:33:26;;;;;;;17.65;4.20;;;;;;;;;;5109285;28;20055;-65
2023/07/16 01:35:52;;;;;;;14.68;4.07;;;;;;;;;;5109826;28;20055;-65
2023/07/16 01:38:20;;;;;;;16.30;3.67;;;;;;;;;;5110310;27;20040;-65
2023/07/16 01:40:47;;;;;;;13.40;3.72;;;;;;;;;;5105884;28;20508;-65
2023/07/16 01:43:14;;;;;;;18.35;4.05;;;;;;;;;;5109623;27;20379;-65
2023/07/16 01:45:40;;;;;;;14.63;3.67;;;;;;;;;;5108553;27;20075;-65
2023/07/16 01:48:18;;;;;;;14.25;3.75;;;;;;;;;;5110186;27;20040;-65
2023/07/16 01:50:44;;;;;;;11.50;3.25;;;;;;;;;;5108587;28;20048;-65
2023/07/16 01:53:10;;;;;;;15.63;4.30;;;;;;;;;;5112457;28;20093;-65
2023/07/16 01:55:37;;;;;;;12.18;3.65;;;;;;;;;;5110079;27;20106;-65
2023/07/16 01:58:03;;;;;;;11.77;3.40;;;;;;;;;;5110712;27;20185;-65
2023/07/16 02:00:29;;;;;;;13.38;3.75;;;;;;;;;;5109856;28;20126;-65
2023/07/16 02:02:55;;;;;;;20.65;3.72;;;;;;;;;;5110784;27;20059;-65
2023/07/16 02:05:21;;;;;;;16.02;3.40;;;;;;;;;;5110995;27;20581;-65
2023/07/16 02:07:48;;;;;;;15.55;4.03;;;;;;;;;;5103274;27;20051;-65
2023/07/16 02:10:14;;;;;;;13.55;3.70;;;;;;;;;;5102631;27;20046;-65
2023/07/16 02:12:40;;;;;;;11.50;3.33;;;;;;;;;;5101810;28;20512;-65
2023/07/16 02:15:06;;;;;;;14.38;4.15;;;;;;;;;;5102386;28;20096;-65
2023/07/16 02:17:32;;;;;;;13.88;3.22;;;;;;;;;;5100262;27;20165;-65
2023/07/16 02:19:59;;;;;;;13.80;2.97;;;;;;;;;;5102628;28;20044;-65
2023/07/16 02:22:25;;;;;;;12.90;3.70;;;;;;;;;;5101551;28;20495;-65
2023/07/16 02:24:51;;;;;;;12.95;3.05;;;;;;;;;;5102340;28;20153;-65
2023/07/16 02:27:18;;;;;;;10.25;3.13;;;;;;;;;;5103545;27;20445;-65
2023/07/16 02:29:44;;;;;;;10.65;3.53;;;;;;;;;;5101470;28;20482;-65
2023/07/16 02:32:10;;;;;;;9.98;3.28;;;;;;;;;;5100285;28;20080;-65
2023/07/16 02:34:36;;;;;;;14.65;3.58;;;;;;;;;;5102280;28;20142;-65
2023/07/16 02:37:03;;;;;;;13.95;4.07;;;;;;;;;;5101703;28;20053;-65
2023/07/16 02:39:29;;;;;;;10.73;3.40;;;;;;;;;;5099336;28;20123;-65
2023/07/16 02:41:55;;;;;;;12.55;3.97;;;;;;;;;;5103014;27;20139;-65
2023/07/16 02:44:21;;;;;;;16.58;4.93;;;;;;;;;;5102137;28;20039;-65
2023/07/16 02:46:47;;;;;;;18.50;4.82;;;;;;;;;;5101449;28;20035;-65
2023/07/16 02:49:14;;;;;;;13.70;4.38;;;;;;;;;;5101715;28;20143;-65
2023/07/16 02:51:40;;;;;;;15.98;5.28;;;;;;;;;;5101278;28;20119;-65
2023/07/16 02:54:06;;;;;;;21.10;6.13;;;;;;;;;;5100079;28;20372;-65
2023/07/16 02:56:32;;;;;;;20.65;5.78;;;;;;;;;;5103424;28;20035;-65
2023/07/16 02:58:58;;;;;;;20.95;6.15;;;;;;;;;;5101277;28;20047;-65
2023/07/16 03:01:25;;;;;;;14.02;5.35;;;;;;;;;;5107217;28;20044;-65
2023/07/16 03:03:51;;;;;;;14.77;5.85;;;;;;;;;;5106136;28;20382;-65
2023/07/16 03:06:17;;;;;;;18.35;5.40;;;;;;;;;;5102862;28;20051;-65
2023/07/16 03:08:45;;;;;;;17.05;5.72;;;;;;;;;;5108785;28;20099;-65
2023/07/16 03:11:11;;;;;;;12.73;5.47;;;;;;;;;;5102217;28;20059;-65
2023/07/16 03:13:37;;;;;;;19.73;5.78;;;;;;;;;;5119330;28;20036;-65
2023/07/16 03:16:04;;;;;;;24.05;7.05;;;;;;;;;;5107513;28;20050;-65
2023/07/16 03:18:30;;;;;;;17.90;6.90;;;;;;;;;;5109936;28;20067;-65
2023/07/16 03:20:57;;;;;;;24.10;7.13;;;;;;;;;;5109660;28;20521;-65
2023/07/16 03:23:23;;;;;;;20.23;6.18;;;;;;;;;;5103475;28;20134;-65
2023/07/16 03:25:49;;;;;;;17.25;6.22;;;;;;;;;;5101781;28;20059;-65
2023/07/16 03:28:16;;;;;;;16.70;6.85;;;;;;;;;;5109703;28;20061;-65
2023/07/16 03:30:45;;;;;;;13.60;5.97;;;;;;;;;;5109865;28;20509;-65
2023/07/16 03:33:12;;;;;;;18.92;6.95;;;;;;;;;;5111596;28;20036;-65
2023/07/16 03:35:38;;;;;;;17.45;6.35;;;;;;;;;;5106119;27;20475;-65
2023/07/16 03:38:04;;;;;;;17.88;6.40;;;;;;;;;;5102381;27;20043;-65
2023/07/16 03:40:30;;;;;;;21.13;6.30;;;;;;;;;;5105878;27;20046;-65
2023/07/16 03:42:57;;;;;;;17.65;6.28;;;;;;;;;;5104958;28;20045;-65
2023/07/16 03:45:25;;;;;;;19.38;5.78;;;;;;;;;;5105557;28;20046;-65
2023/07/16 03:47:51;;;;;;;16.08;5.78;;;;;;;;;;5104832;28;20263;-65
2023/07/16 03:50:17;;;;;;;18.38;6.10;;;;;;;;;;5099773;27;20165;-65
2023/07/16 03:52:44;;;;;;;19.33;6.20;;;;;;;;;;5105139;27;20101;-65
2023/07/16 03:55:10;;;;;;;18.55;6.30;;;;;;;;;;5106815;28;20046;-65
2023/07/16 03:57:36;;;;;;;15.65;5.63;;;;;;;;;;5103678;28;20043;-65
2023/07/16 04:00:05;;;;;;;20.98;6.65;;;;;;;;;;5105930;28;20039;-65
2023/07/16 04:02:32;;;;;;;16.85;5.85;;;;;;;;;;5105173;28;20051;-65
2023/07/16 04:04:58;;;;;;;15.93;6.80;;;;;;;;;;5108271;28;20433;-65
2023/07/16 04:07:24;;;;;;;17.65;6.82;;;;;;;;;;5105392;28;20118;-65
2023/07/16 04:09:50;;;;;;;23.73;7.70;;;;;;;;;;5102401;27;20390;-65
2023/07/16 04:12:16;;;;;;;14.77;6.72;;;;;;;;;;5104375;28;20039;-65
2023/07/16 04:14:43;;;;;;;19.63;6.75;;;;;;;;;;5104635;28;20096;-65
2023/07/16 04:17:09;;;;;;;21.13;7.10;;;;;;;;;;5107452;28;20078;-65
2023/07/16 04:19:35;;;;;;;16.75;6.53;;;;;;;;;;5105115;28;20431;-65
2023/07/16 04:22:01;;;;;;;17.40;6.97;;;;;;;;;;5103205;27;20044;-65
2023/07/16 04:24:28;;;;;;;13.20;6.20;;;;;;;;;;5104186;28;20073;-65
2023/07/16 04:26:54;;;;;;;14.07;6.88;;;;;;;;;;5106286;27;20036;-65
2023/07/16 04:29:20;;;;;;;22.02;6.70;;;;;;;;;;5103164;28;20063;-65
2023/07/16 04:31:46;;;;;;;22.75;7.68;;;;;;;;;;5103878;28;20411;-65
2023/07/16 04:34:13;;;;;;;19.70;7.50;;;;;;;;;;5103316;28;20151;-65
2023/07/16 04:36:39;;;;;;;20.85;7.82;;;;;;;;;;5102876;28;20131;-65
2023/07/16 04:39:05;;;;;;;18.73;6.20;;;;;;;;;;5102842;27;20058;-65
2023/07/16 04:41:31;;;;;;;18.50;6.97;;;;;;;;;;5104377;28;20043;-65
2023/07/16 04:43:58;;;;;;;14.27;6.60;;;;;;;;;;5104921;27;21435;-65
2023/07/16 04:46:24;;;;;;;16.98;6.38;;;;;;;;;;5094909;27;20089;-63
2023/07/16 04:48:50;;;;;;;15.25;6.28;;;;;;;;;;5104097;27;20364;-65
2023/07/16 04:51:16;;;;;;;25.88;7.35;;;;;;;;;;5109862;27;20097;-65
2023/07/16 04:53:42;;;;;;;15.30;6.78;;;;;;;;;;5111340;28;20091;-65
2023/07/16 04:56:12;;;;;;;15.55;5.47;;;;;;;;;;5110273;27;20040;-65
2023/07/16 04:58:39;;;;;;;13.00;5.40;;;;;;;;;;5106071;28;20058;-65
2023/07/16 05:01:05;;;;;;;17.58;6.07;;;;;;;;;;5113076;28;20032;-65
2023/07/16 05:03:31;;;;;;;21.77;6.78;;;;;;;;;;5105711;28;20043;-65
2023/07/16 05:05:57;;;;;;;19.38;6.93;;;;;;;;;;5109320;28;20080;-65
2023/07/16 05:08:23;;;;;;;22.70;5.95;;;;;;;;;;5107134;27;20071;-65
2023/07/16 05:10:50;;;;;;;15.25;5.63;;;;;;;;;;5102438;28;20040;-65
2023/07/16 05:13:16;;;;;;;18.52;6.70;;;;;;;;;;5105517;28;20065;-65
2023/07/16 05:15:44;;;;;;;18.38;7.13;;;;;;;;;;5096153;28;20408;-66
2023/07/16 05:18:10;;;;;;;16.70;6.22;;;;;;;;;;5108862;28;20031;-65
2023/07/16 05:20:36;;;;;;;15.48;7.30;;;;;;;;;;5108769;28;20096;-64
2023/07/16 05:23:02;;;;;;;25.48;7.10;;;;;;;;;;5107961;28;20070;-66
2023/07/16 05:25:29;;;;;;;17.50;6.30;;;;;;;;;;5112769;27;20035;-65
2023/07/16 05:27:55;;;;;;;20.58;7.18;;;;;;;;;;5112689;28;20340;-65
2023/07/16 05:30:21;;;;;;;18.13;7.15;;;;;;;;;;5110118;27;20047;-65
2023/07/16 05:32:47;;;;;;;18.85;7.32;;;;;;;;;;5110936;27;20101;-65
2023/07/16 05:35:14;;;;;;;18.83;7.95;;;;;;;;;;5107526;28;20131;-65
2023/07/16 05:37:40;;;;;;;16.20;6.40;;;;;;;;;;5109292;27;20047;-65
2023/07/16 05:40:08;;;;;;;19.05;6.93;;;;;;;;;;5113323;28;20465;-65
2023/07/16 05:42:34;;;;;;;19.67;7.13;;;;;;;;;;5112514;27;20119;-65
2023/07/16 05:45:01;;;;;;;14.48;7.90;;;;;;;;;;5112183;28;20040;-65
2023/07/16 05:47:27;;;;;;;20.60;7.07;;;;;;;;;;5111183;28;20039;-65
2023/07/16 05:49:53;;;;;;;19.42;7.35;;;;;;;;;;5110787;27;20055;-65
2023/07/16 05:52:19;;;;;;;16.90;6.15;;;;;;;;;;5112658;28;20051;-65
2023/07/16 05:54:45;;;;;;;22.85;6.75;;;;;;;;;;5105791;27;20051;-65
2023/07/16 05:57:13;;;;;;;15.95;5.63;;;;;;;;;;5107878;27;20047;-65
2023/07/16 05:59:39;;;;;;;14.57;5.53;;;;;;;;;;5107487;28;20039;-65
2023/07/16 06:02:06;;;;;;;12.13;5.38;;;;;;;;;;5112460;28;20119;-65
2023/07/16 06:04:32;;;;;;;17.35;5.60;;;;;;;;;;5108443;27;20408;-65
2023/07/16 06:06:59;;;;;;;17.02;6.38;;;;;;;;;;5109781;27;20043;-65
2023/07/16 06:09:25;;;;;;;16.67;5.93;;;;;;;;;;5111915;28;20044;-65
2023/07/16 06:11:51;;;;;;;19.85;6.65;;;;;;;;;;5111599;28;20051;-65
2023/07/16 06:14:18;;;;;;;17.80;5.80;;;;;;;;;;5113088;28;20351;-65
2023/07/16 06:16:44;;;;;;;18.88;5.80;;;;;;;;;;5110367;28;20086;-65
2023/07/16 06:19:11;;;;;;;19.95;5.90;;;;;;;;;;5111430;28;20040;-66
2023/07/16 06:21:37;;;;;;;14.50;5.72;;;;;;;;;;5111158;28;20044;-65
2023/07/16 06:24:03;;;;;;;20.33;6.82;;;;;;;;;;5110832;28;20089;-65
2023/07/16 06:26:29;;;;;;;13.65;6.07;;;;;;;;;;5111516;27;20040;-65
2023/07/16 06:28:55;;;;;;;17.30;6.38;;;;;;;;;;5112536;28;20040;-65
2023/07/16 06:31:22;;;;;;;18.52;5.45;;;;;;;;;;5111599;27;20126;-65
2023/07/16 06:33:49;;;;;;;15.75;5.97;;;;;;;;;;5112396;28;20042;-66
2023/07/16 06:36:15;;;;;;;15.55;6.60;;;;;;;;;;5111395;28;20043;-65
2023/07/16 06:38:41;;;;;;;18.83;5.88;;;;;;;;;;5112137;28;20047;-65
2023/07/16 06:41:07;;;;;;;15.38;5.80;;;;;;;;;;5112310;28;20054;-66
2023/07/16 06:43:34;;;;;;;22.45;6.43;;;;;;;;;;5110175;28;20129;-66
2023/07/16 06:46:00;;;;;;;15.88;5.32;;;;;;;;;;5111112;27;20131;-75
2023/07/16 06:48:26;;;;;;;14.68;6.72;;;;;;;;;;5114408;27;20116;-66
2023/07/16 06:50:53;;;;;;;15.60;6.03;;;;;;;;;;5097510;28;20428;-64
2023/07/16 06:53:19;;;;;;;12.55;6.00;;;;;;;;;;5105924;27;20055;-65
2023/07/16 06:55:47;;;;;;;17.52;5.85;;;;;;;;;;5112927;28;20092;-65
2023/07/16 06:58:14;;;;;;;18.13;5.57;;;;;;;;;;5112238;28;20047;-65
2023/07/16 07:00:41;;;;;;;18.13;6.68;;;;;;;;;;5103777;28;20040;-65
2023/07/16 07:03:07;;;;;;;17.23;5.90;;;;;;;;;;5110263;28;20138;-65
2023/07/16 07:05:35;;;;;;;16.83;6.60;;;;;;;;;;5108399;28;20093;-65
2023/07/16 07:08:02;;;;;;;11.73;4.95;;;;;;;;;;5109355;27;20466;-64
2023/07/16 07:10:28;;;;;;;18.60;6.85;;;;;;;;;;5118597;27;20035;-64
2023/07/16 07:12:54;;;;;;;19.30;6.30;;;;;;;;;;5118608;27;20404;-64
2023/07/16 07:15:20;;;;;;;11.35;5.75;;;;;;;;;;5121443;27;20039;-65
2023/07/16 07:17:48;;;;;;;20.20;6.70;;;;;;;;;;5120665;27;20096;-65
2023/07/16 07:20:14;;;;;;;21.35;6.78;;;;;;;;;;5114591;27;20070;-65
2023/07/16 07:22:41;;;;;;;20.48;6.38;;;;;;;;;;5116849;27;20459;-65
2023/07/16 07:25:07;;;;;;;18.90;7.35;;;;;;;;;;5118485;27;20122;-65
2023/07/16 07:27:33;;;;;;;22.05;6.97;;;;;;;;;;5111179;27;20616;-65
2023/07/16 07:29:59;;;;;;;16.70;5.60;;;;;;;;;;5089116;27;20075;-65
2023/07/16 07:32:25;;;;;;;18.38;6.63;;;;;;;;;;5112859;27;20055;-65
2023/07/16 07:34:52;;;;;;;19.38;7.25;;;;;;;;;;5110379;27;20040;-65
2023/07/16 07:37:18;;;;;;;12.00;6.00;;;;;;;;;;5107802;27;20063;-63
2023/07/16 07:39:47;;;;;;;16.30;5.60;;;;;;;;;;5116499;27;20043;-65
2023/07/16 07:42:13;;;;;;;14.02;5.90;;;;;;;;;;5117089;28;20036;-64
2023/07/16 07:44:40;;;;;;;17.33;6.18;;;;;;;;;;5116675;28;20532;-65
2023/07/16 07:47:08;;;;;;;16.50;5.63;;;;;;;;;;5118096;28;20036;-65
2023/07/16 07:49:34;;;;;;;15.32;6.47;;;;;;;;;;5117800;28;20131;-65
2023/07/16 07:52:01;;;;;;;15.07;5.18;;;;;;;;;;5118401;27;20043;-65
2023/07/16 07:54:27;;;;;;;16.52;5.70;;;;;;;;;;5117209;28;20444;-65
2023/07/16 07:56:53;;;;;;;21.90;6.50;;;;;;;;;;5116807;28;20113;-65
2023/07/16 07:59:19;;;;;;;18.42;5.63;;;;;;;;;;5116847;27;20424;-65
2023/07/16 08:01:45;;;;;;;19.27;5.82;;;;;;;;;;5118133;27;20043;-65
2023/07/16 08:04:11;;;;;;;19.95;6.65;;;;;;;;;;5116473;28;20560;-65
2023/07/16 08:06:38;;;;;;;12.80;5.43;;;;;;;;;;5116743;28;20101;-65
2023/07/16 08:09:05;;;;;;;17.52;5.70;;;;;;;;;;5117590;28;20085;-65
2023/07/16 08:11:31;;;;;;;16.10;5.03;;;;;;;;;;5117349;28;20156;-65
2023/07/16 08:13:57;;;;;;;13.40;5.53;;;;;;;;;;5118000;28;20410;-65
2023/07/16 08:16:23;;;;;;;17.15;5.07;;;;;;;;;;5117222;27;20040;-65
2023/07/16 08:18:50;;;;;;;19.58;6.45;;;;;;;;;;5115630;27;20488;-66
2023/07/16 08:21:19;;;;;;;18.15;6.78;;;;;;;;;;5107646;28;20490;-66
2023/07/16 08:23:47;;;;;;;12.10;5.55;;;;;;;;;;5112493;28;20115;-65
2023/07/16 08:26:13;;;;;;;15.10;6.38;;;;;;;;;;5113409;28;20040;-67
2023/07/16 08:28:39;;;;;;;17.42;5.78;;;;;;;;;;5113894;27;20471;-67
2023/07/16 08:31:05;;;;;;;12.77;5.50;;;;;;;;;;5126755;27;20059;-67
2023/07/16 08:33:32;;;;;;;13.82;5.47;;;;;;;;;;5117871;27;20120;-67
2023/07/16 08:35:58;;;;;;;14.50;5.28;;;;;;;;;;5112805;27;20391;-66
2023/07/16 08:38:24;;;;;;;13.27;5.20;;;;;;;;;;5114659;27;20039;-66
2023/07/16 08:40:50;;;;;;;16.05;5.70;;;;;;;;;;5114459;28;20044;-66
2023/07/16 08:43:18;;;;;;;19.13;5.93;;;;;;;;;;5113231;28;20039;-66
2023/07/16 08:45:45;;;;;;;14.82;5.13;;;;;;;;;;5113039;28;20056;-67
2023/07/16 08:48:12;;;;;;;16.83;5.47;;;;;;;;;;5114117;28;20351;-66
2023/07/16 08:50:39;;;;;;;15.88;5.05;;;;;;;;;;5114299;27;20558;-66
2023/07/16 08:53:06;;;;;;;10.98;4.95;;;;;;;;;;5112179;28;20051;-66
2023/07/16 08:55:32;;;;;;;11.73;4.05;;;;;;;;;;5111275;27;20048;-66
2023/07/16 08:57:59;;;;;;;16.40;5.10;;;;;;;;;;5111235;27;20051;-66
2023/07/16 09:00:28;;;;;;;10.25;4.07;;;;;;;;;;5115216;27;20116;-66
2023/07/16 09:02:54;;;;;;;20.92;5.68;;;;;;;;;;5114347;28;20054;-77
2023/07/16 09:05:21;;;;;;;13.18;4.50;;;;;;;;;;5129553;27;20036;-66
2023/07/16 09:07:48;;;;;;;12.30;4.57;;;;;;;;;;5112302;28;20446;-66
2023/07/16 09:10:14;;;;;;;10.63;5.45;;;;;;;;;;5113622;28;20062;-66
2023/07/16 09:12:44;;;;;;;10.85;4.22;;;;;;;;;;5113462;28;20115;-66
2023/07/16 09:15:10;;;;;;;12.48;4.90;;;;;;;;;;5114247;28;20079;-66
2023/07/16 09:17:38;;;;;;;13.85;5.10;;;;;;;;;;5113445;28;20039;-66
2023/07/16 09:20:06;;;;;;;14.35;5.25;;;;;;;;;;5113549;28;20426;-66
2023/07/16 09:22:34;;;;;;;13.93;4.95;;;;;;;;;;5111359;27;20448;-66
2023/07/16 09:25:03;;;;;;;17.77;5.60;;;;;;;;;;5112013;27;20043;-66
2023/07/16 09:27:30;;;;;;;18.27;6.15;;;;;;;;;;5113094;28;20047;-66
2023/07/16 09:29:56;;;;;;;17.88;5.50;;;;;;;;;;5113883;28;20054;-66
2023/07/16 09:32:22;;;;;;;17.92;5.15;;;;;;;;;;5111190;28;20047;-66
2023/07/16 09:34:51;;;;;;;14.68;5.28;;;;;;;;;;5110396;27;20044;-66
2023/07/16 09:37:19;;;;;;;17.48;4.80;;;;;;;;;;5111843;27;20081;-66
2023/07/16 09:39:46;;;;;;;15.27;5.03;;;;;;;;;;5113515;28;20035;-67
2023/07/16 09:42:13;;;;;;;13.15;4.88;;;;;;;;;;5110700;28;20046;-67
2023/07/16 09:44:41;;;;;;;15.13;4.90;;;;;;;;;;5105850;27;20050;-78
2023/07/16 09:47:07;;;;;;;15.98;4.78;;;;;;;;;;5109563;27;20146;-68
2023/07/16 09:49:33;;;;;;;19.40;5.50;;;;;;;;;;5109587;28;20052;-68
2023/07/16 09:52:02;;;;;;;15.15;5.63;;;;;;;;;;5112135;28;20091;-68
2023/07/16 09:54:32;;;;;;;14.73;5.38;;;;;;;;;;5112919;28;20353;-68
2023/07/16 09:57:00;;;;;;;13.85;5.75;;;;;;;;;;5107196;27;20044;-68
2023/07/16 09:59:28;;;;;;;13.60;5.15;;;;;;;;;;5112938;28;20518;-68
2023/07/16 10:01:56;;;;;;;19.02;5.30;;;;;;;;;;5115994;27;20163;-68
2023/07/16 10:04:22;;;;;;;14.68;4.35;;;;;;;;;;5110718;28;20048;-68
2023/07/16 10:06:52;;;;;;;13.63;5.38;;;;;;;;;;5111367;27;20048;-67
2023/07/16 10:09:38;;;;;;;14.93;4.55;;;;;;;;;;5110438;28;20126;-67
2023/07/16 10:12:23;;;;;;;15.13;4.20;;;;;;;;;;5112027;27;20486;-68
2023/07/16 10:14:50;;;;;;;16.45;5.32;;;;;;;;;;5110913;28;20217;-68
2023/07/16 10:17:17;;;;;;;16.55;4.28;;;;;;;;;;5112143;28;20043;-66
2023/07/16 10:19:49;;;;;;;13.13;4.63;;;;;;;;;;5112610;28;20403;-68
2023/07/16 10:22:16;;;;;;;13.23;4.63;;;;;;;;;;5109908;28;20040;-67
2023/07/16 10:24:42;;;;;;;11.80;5.30;;;;;;;;;;5103198;28;20225;-68
2023/07/16 10:27:08;;;;;;;16.45;4.97;;;;;;;;;;5101054;28;20422;-68
2023/07/16 10:29:36;;;;;;;17.10;5.07;;;;;;;;;;5110011;28;20442;-68
2023/07/16 10:32:03;;;;;;;14.52;5.03;;;;;;;;;;5110280;27;20413;-68
2023/07/16 10:34:29;;;;;;;14.75;4.47;;;;;;;;;;5109648;28;20055;-68
2023/07/16 10:36:55;;;;;;;17.20;4.93;;;;;;;;;;5101150;28;20089;-68
2023/07/16 10:39:21;;;;;;;12.85;4.15;;;;;;;;;;5111501;28;20035;-67
2023/07/16 10:41:47;;;;;;;18.00;4.43;;;;;;;;;;5112311;28;20050;-67
2023/07/16 10:44:15;;;;;;;14.98;4.50;;;;;;;;;;5110450;27;20055;-68
2023/07/16 10:46:45;;;;;;;11.13;4.30;;;;;;;;;;5108333;28;20052;-67
2023/07/16 10:49:11;;;;;;;18.70;4.90;;;;;;;;;;5111094;28;20427;-67
2023/07/16 10:51:37;;;;;;;16.80;4.18;;;;;;;;;;5109661;28;20055;-67
2023/07/16 10:54:05;;;;;;;12.80;3.67;;;;;;;;;;5111820;28;20043;-67
2023/07/16 10:56:34;;;;;;;11.57;3.85;;;;;;;;;;5108900;28;20043;-67
2023/07/16 10:59:00;;;;;;;13.77;3.88;;;;;;;;;;5110777;28;20087;-67
2023/07/16 11:01:29;;;;;;;12.93;3.75;;;;;;;;;;5109895;28;20123;-67
2023/07/16 11:04:01;;;;;;;14.10;4.75;;;;;;;;;;5112487;28;20373;-67
2023/07/16 11:06:27;;;;;;;13.68;4.18;;;;;;;;;;5109284;28;20062;-67
2023/07/16 11:08:53;;;;;;;14.80;3.90;;;;;;;;;;5111931;28;20054;-67
2023/07/16 11:11:30;;;;;;;13.00;4.90;;;;;;;;;;5110652;28;20050;-67
2023/07/16 11:13:56;;;;;;;15.20;4.10;;;;;;;;;;5110612;28;20106;-67
2023/07/16 11:16:22;;;;;;;17.48;4.68;;;;;;;;;;5111206;28;20110;-67
2023/07/16 11:18:49;;;;;;;10.68;3.92;;;;;;;;;;5113143;28;20502;-67
2023/07/16 11:21:19;;;;;;;15.68;4.13;;;;;;;;;;5110404;28;20115;-67
2023/07/16 11:23:46;;;;;;;17.20;4.18;;;;;;;;;;5111530;28;20115;-67
2023/07/16 11:26:12;;;;;;;15.93;4.50;;;;;;;;;;5111337;28;20557;-67
2023/07/16 11:28:41;;;;;;;11.95;3.55;;;;;;;;;;5109890;28;20066;-67
2023/07/16 11:31:11;;;;;;;14.10;4.00;;;;;;;;;;5111070;28;20047;-67
2023/07/16 11:33:38;;;;;;;14.48;3.35;;;;;;;;;;5111499;28;20125;-67
2023/07/16 11:36:04;;;;;;;14.43;3.95;;;;;;;;;;5111294;28;20048;-67
2023/07/16 11:38:36;;;;;;;21.45;4.55;;;;;;;;;;5113564;28;20036;-67
2023/07/16 11:41:02;;;;;;;10.38;3.30;;;;;;;;;;5105343;28;20051;-67
2023/07/16 11:43:28;;;;;;;15.43;3.35;;;;;;;;;;5111856;28;20054;-67
2023/07/16 11:45:54;;;;;;;12.48;3.05;;;;;;;;;;5111993;28;20383;-67
2023/07/16 11:48:21;;;;;;;20.52;3.17;;;;;;;;;;5110187;28;20047;-68
2023/07/16 11:50:47;;;;;;;13.60;2.63;;;;;;;;;;5109859;28;20055;-67
2023/07/16 11:53:13;;;;;;;17.70;3.75;;;;;;;;;;5110191;28;20044;-67
2023/07/16 11:55:39;;;;;;;12.68;2.78;;;;;;;;;;5112963;28;20092;-67
2023/07/16 11:58:05;;;;;;;16.33;3.25;;;;;;;;;;5114752;28;20047;-67
2023/07/16 12:00:32;;;;;;;13.43;3.13;;;;;;;;;;5115710;28;20039;-67
2023/07/16 12:02:58;;;;;;;13.52;3.38;;;;;;;;;;5113666;28;20047;-67
2023/07/16 12:05:26;;;;;;;16.02;3.35;;;;;;;;;;5113124;27;20044;-67
2023/07/16 12:07:52;;;;;;;14.30;3.80;;;;;;;;;;5114305;28;20050;-67
2023/07/16 12:10:18;;;;;;;14.93;3.35;;;;;;;;;;5114629;28;20048;-67
2023/07/16 12:12:44;;;;;;;14.88;4.00;;;;;;;;;;5113809;28;20031;-67
2023/07/16 12:15:12;;;;;;;14.93;3.95;;;;;;;;;;5114824;28;20134;-67
2023/07/16 12:17:38;;;;;;;18.40;5.05;;;;;;;;;;5113808;28;20146;-67
2023/07/16 12:20:05;;;;;;;18.23;4.55;;;;;;;;;;5114650;27;20035;-67
2023/07/16 12:22:31;;;;;;;15.30;4.50;;;;;;;;;;5113144;28;20047;-67
2023/07/16 12:24:58;;;;;;;13.20;4.88;;;;;;;;;;5114785;27;20040;-67
2023/07/16 12:27:24;;;;;;;18.88;5.22;;;;;;;;;;5113913;27;20032;-67
2023/07/16 12:29:52;;;;;;;21.42;4.38;;;;;;;;;;5114534;28;20340;-67
2023/07/16 12:32:18;;;;;;;14.88;4.22;;;;;;;;;;5114613;28;20096;-67
2023/07/16 12:34:45;;;;;;;13.38;3.88;;;;;;;;;;5113851;28;20039;-67
2023/07/16 12:37:11;;;;;;;18.42;4.38;;;;;;;;;;5114229;28;20044;-67
2023/07/16 12:39:38;;;;;;;15.65;3.72;;;;;;;;;;5114289;27;20043;-67
2023/07/16 12:42:04;;;;;;;15.55;3.97;;;;;;;;;;5114539;28;20126;-67
2023/07/16 12:44:30;;;;;;;21.00;4.72;;;;;;;;;;5112671;28;20051;-67
2023/07/16 12:46:57;;;;;;;16.70;4.20;;;;;;;;;;5112982;28;20032;-65
2023/07/16 12:49:23;;;;;;;16.48;4.78;;;;;;;;;;5113309;28;20050;-65
2023/07/16 12:51:49;;;;;;;19.20;4.05;;;;;;;;;;5111405;27;20044;-65
2023/07/16 12:54:15;;;;;;;23.35;5.60;;;;;;;;;;5114253;27;20043;-65
2023/07/16 12:56:41;;;;;;;25.20;4.22;;;;;;;;;;5114230;28;20118;-65
2023/07/16 12:59:08;;;;;;;21.92;4.50;;;;;;;;;;5111003;28;20045;-65
2023/07/16 13:01:34;;;;;;;17.17;4.28;;;;;;;;;;5113576;28;20059;-65
2023/07/16 13:04:00;;;;;;;21.25;4.82;;;;;;;;;;5112763;27;20505;-65
2023/07/16 13:06:26;;;;;;;18.08;3.40;;;;;;;;;;5113123;28;20101;-65
2023/07/16 13:08:52;;;;;;;12.60;3.55;;;;;;;;;;5112785;28;20372;-65
2023/07/16 13:11:19;;;;;;;14.45;3.17;;;;;;;;;;5112883;28;20111;-65
2023/07/16 13:13:45;;;;;;;17.35;3.35;;;;;;;;;;5112129;28;20043;-65
2023/07/16 13:16:11;;;;;;;19.88;3.90;;;;;;;;;;5112343;27;20058;-65
2023/07/16 13:18:37;;;;;;;20.15;3.53;;;;;;;;;;5113133;28;20043;-65
2023/07/16 13:21:03;;;;;;;24.17;4.53;;;;;;;;;;5112294;28;20042;-65
2023/07/16 13:23:30;;;;;;;17.48;4.05;;;;;;;;;;5111943;27;20048;-65
2023/07/16 13:25:56;;;;;;;20.20;3.65;;;;;;;;;;5111905;28;20096;-65
2023/07/16 13:28:24;;;;;;;16.38;3.33;;;;;;;;;;5114061;27;20093;-65
2023/07/16 13:30:50;;;;;;;18.20;3.85;;;;;;;;;;5111590;27;20130;-65
2023/07/16 13:33:16;;;;;;;19.27;4.20;;;;;;;;;;5112011;28;20096;-65
2023/07/16 13:35:42;;;;;;;18.42;4.53;;;;;;;;;;5113479;28;20042;-65
2023/07/16 13:38:08;;;;;;;19.35;3.65;;;;;;;;;;5113839;28;20036;-65
2023/07/16 13:40:35;;;;;;;17.73;3.88;;;;;;;;;;5113030;28;20087;-65
2023/07/16 13:43:01;;;;;;;15.38;4.10;;;;;;;;;;5112885;28;20047;-65
2023/07/16 13:45:27;;;;;;;22.80;4.05;;;;;;;;;;5111344;28;20062;-65
2023/07/16 13:47:55;;;;;;;16.67;3.63;;;;;;;;;;5112611;28;20136;-65
2023/07/16 13:50:21;;;;;;;18.98;4.68;;;;;;;;;;5111567;28;20521;-65
2023/07/16 13:52:47;;;;;;;16.48;4.00;;;;;;;;;;5115412;27;20047;-65
2023/07/16 13:55:13;;;;;;;15.23;3.33;;;;;;;;;;5098548;28;20404;-65
2023/07/16 13:57:40;;;;;;;20.58;4.63;;;;;;;;;;5111584;27;20491;-65
2023/07/16 14:00:09;;;;;;;19.08;4.43;;;;;;;;;;5112476;28;20121;-65
2023/07/16 14:02:36;;;;;;;14.75;3.47;;;;;;;;;;5112266;28;20086;-65
2023/07/16 14:05:02;;;;;;;20.50;4.90;;;;;;;;;;5111277;28;20526;-65
2023/07/16 14:07:28;;;;;;;17.23;3.47;;;;;;;;;;5111669;28;20055;-65
2023/07/16 14:09:54;;;;;;;18.73;4.30;;;;;;;;;;5111306;28;20451;-65
2023/07/16 14:12:21;;;;;;;18.85;4.45;;;;;;;;;;5112498;28;20115;-65
2023/07/16 14:14:47;;;;;;;15.38;3.63;;;;;;;;;;5111049;27;20046;-65
2023/07/16 14:17:13;;;;;;;13.55;3.03;;;;;;;;;;5112605;28;20035;-65
2023/07/16 14:19:39;;;;;;;16.08;3.10;;;;;;;;;;5110545;28;20044;-65
2023/07/16 14:22:05;;;;;;;12.85;2.67;;;;;;;;;;5111880;27;20036;-65
2023/07/16 14:24:32;;;;;;;15.88;2.75;;;;;;;;;;5112469;28;20131;-65
2023/07/16 14:27:02;;;;;;;12.88;3.45;;;;;;;;;;5112579;28;20086;-65